Time;durP1;ratioP1;P1;durP2;ratioP2;P2;SDS_P1;SDS_P2;PMS_P1;PMS_P2;Temp;Humidity;BMP_temperature;BMP_pressure;BME280_temperature;BME280_humidity;BME280_pressure;Samples;Min_cycle;Max_cycle;Signal;HPM_P1;HPM_P2
2022/05/27 00:01:42;;;;;;;;;;;19.60;54.90;;;;;;7368625;19;19943;-79
2022/05/27 00:04:10;;;;;;;;;;;19.50;54.90;;;;;;7368136;19;19980;-78
2022/05/27 00:06:39;;;;;;;;;;;19.40;55.10;;;;;;7369069;19;20833;-78
2022/05/27 00:09:13;;;;;;;;;;;19.40;55.10;;;;;;7366020;19;19922;-79
2022/05/27 00:11:42;;;;;;;;;;;19.30;55.10;;;;;;7369726;19;19919;-79
2022/05/27 00:14:10;;;;;;;;;;;19.40;55.30;;;;;;7393030;19;20060;-79
2022/05/27 00:16:39;;;;;;;;;;;19.40;55.20;;;;;;7369927;19;19960;-79
2022/05/27 00:19:07;;;;;;;;;;;19.50;55.10;;;;;;7366943;19;19914;-79
2022/05/27 00:21:36;;;;;;;;;;;19.40;55.20;;;;;;7370857;19;20273;-78
2022/05/27 00:24:04;;;;;;;;;;;19.30;55.60;;;;;;7370147;19;19927;-79
2022/05/27 00:26:35;;;;;;;;;;;19.20;55.70;;;;;;7373584;19;19930;-79
2022/05/27 00:29:04;;;;;;;;;;;19.30;55.80;;;;;;7392695;19;19998;-79
2022/05/27 00:31:32;;;;;;;;;;;19.40;55.80;;;;;;7370720;19;19926;-79
2022/05/27 00:34:01;;;;;;;;;;;19.40;55.70;;;;;;7374153;19;20315;-78
2022/05/27 00:36:33;;;;;;;;;;;19.50;55.60;;;;;;7376720;19;20333;-78
2022/05/27 00:39:03;;;;;;;;;;;19.50;55.60;;;;;;7376388;19;19974;-78
2022/05/27 00:41:32;;;;;;;;;;;19.50;55.60;;;;;;7376935;19;20307;-79
2022/05/27 00:44:04;;;;;;;;;;;19.50;55.70;;;;;;7393304;19;19930;-78
2022/05/27 00:46:34;;;;;;;;;;;19.50;55.60;;;;;;7371252;19;19923;-78
2022/05/27 00:49:06;;;;;;;;;;;19.60;55.70;;;;;;7375290;19;19947;-78
2022/05/27 00:51:37;;;;;;;;;;;19.50;55.80;;;;;;7376681;19;19970;-78
2022/05/27 00:54:09;;;;;;;;;;;19.50;55.70;;;;;;7375152;19;19936;-78
2022/05/27 00:56:40;;;;;;;;;;;19.50;55.90;;;;;;7377987;19;19922;-77
2022/05/27 00:59:20;;;;;;;;;;;19.50;55.90;;;;;;7399275;19;20291;-78
2022/05/27 01:01:52;;;;;;;;;;;19.50;56.00;;;;;;7376458;19;20282;-79
2022/05/27 01:04:21;;;;;;;;;;;19.50;56.00;;;;;;7374209;19;19923;-79
2022/05/27 01:06:49;;;;;;;;;;;19.50;56.00;;;;;;7376464;19;19915;-79
2022/05/27 01:09:17;;;;;;;;;;;19.50;56.10;;;;;;7372471;19;19943;-79
2022/05/27 01:11:58;;;;;;;;;;;19.50;56.30;;;;;;7376607;19;19925;-79
2022/05/27 01:14:34;;;;;;;;;;;19.50;56.20;;;;;;7397832;19;19964;-78
2022/05/27 01:17:12;;;;;;;;;;;19.50;56.40;;;;;;7375942;19;19925;-78
2022/05/27 01:22:43;;;;;;;;;;;19.60;56.20;;;;;;7374565;19;19918;-79
2022/05/27 01:25:27;;;;;;;;;;;19.60;56.20;;;;;;7375059;19;19922;-79
2022/05/27 01:28:12;;;;;;;;;;;19.70;56.00;;;;;;7374310;19;19915;-78
2022/05/27 01:30:46;;;;;;;;;;;19.60;55.80;;;;;;7373955;19;19978;-79
2022/05/27 01:33:22;;;;;;;;;;;19.60;55.90;;;;;;7374671;19;19964;-79
2022/05/27 01:35:54;;;;;;;;;;;19.40;55.50;;;;;;7374278;19;19924;-79
2022/05/27 01:38:25;;;;;;;;;;;19.40;55.90;;;;;;7393492;19;19974;-79
2022/05/27 01:40:58;;;;;;;;;;;19.40;55.80;;;;;;7374626;19;19932;-79
2022/05/27 01:43:29;;;;;;;;;;;19.40;55.80;;;;;;7372918;19;19939;-80
2022/05/27 01:46:04;;;;;;;;;;;19.40;55.90;;;;;;7371236;19;19933;-79
2022/05/27 01:48:37;;;;;;;;;;;19.40;55.90;;;;;;7372371;19;19922;-79
2022/05/27 01:51:09;;;;;;;;;;;19.30;55.70;;;;;;7371855;19;20042;-80
2022/05/27 01:53:42;;;;;;;;;;;19.30;56.30;;;;;;7373111;19;20491;-79
2022/05/27 01:56:14;;;;;;;;;;;19.20;55.90;;;;;;7397372;19;19928;-79
2022/05/27 01:58:46;;;;;;;;;;;19.20;55.90;;;;;;7375125;19;19931;-79
2022/05/27 02:01:19;;;;;;;;;;;19.20;56.00;;;;;;7372349;19;19925;-79
2022/05/27 02:03:52;;;;;;;;;;;19.20;56.00;;;;;;7374430;19;19928;-79
2022/05/27 02:06:23;;;;;;;;;;;19.20;56.00;;;;;;7372606;19;19928;-79
2022/05/27 02:08:54;;;;;;;;;;;19.10;56.00;;;;;;7372807;19;20025;-79
2022/05/27 02:11:24;;;;;;;;;;;19.20;56.20;;;;;;7396210;19;19936;-79
2022/05/27 02:13:54;;;;;;;;;;;19.10;56.20;;;;;;7374547;19;19986;-79
2022/05/27 02:16:27;;;;;;;;;;;19.20;56.40;;;;;;7374809;19;20382;-79
2022/05/27 02:18:57;;;;;;;;;;;19.20;56.40;;;;;;7375156;19;19919;-79
2022/05/27 02:21:28;;;;;;;;;;;19.20;56.50;;;;;;7372041;19;19990;-79
2022/05/27 02:23:59;;;;;;;;;;;19.30;56.60;;;;;;7373456;19;19914;-79
2022/05/27 02:26:29;;;;;;;;;;;19.30;56.40;;;;;;7396399;19;20061;-79
2022/05/27 02:29:01;;;;;;;;;;;19.40;56.10;;;;;;7375058;19;20384;-79
2022/05/27 02:31:35;;;;;;;;;;;19.40;56.00;;;;;;7374208;19;19931;-79
2022/05/27 02:36:55;;;;;;;;;;;19.50;56.40;;;;;;7373568;19;19966;-79
2022/05/27 02:39:23;;;;;;;;;;;19.50;56.40;;;;;;7373728;19;19990;-79
2022/05/27 02:41:57;;;;;;;;;;;19.50;56.40;;;;;;7372671;19;20326;-79
2022/05/27 02:44:27;;;;;;;;;;;19.60;56.40;;;;;;7390448;19;19947;-79
2022/05/27 02:47:05;;;;;;;;;;;19.60;56.40;;;;;;7372115;19;19926;-79
2022/05/27 02:49:38;;;;;;;;;;;19.60;56.10;;;;;;7373276;19;19928;-79
2022/05/27 02:52:11;;;;;;;;;;;19.70;56.30;;;;;;7373642;19;19922;-79
2022/05/27 02:54:45;;;;;;;;;;;19.70;56.10;;;;;;7368764;19;19919;-79
2022/05/27 02:57:16;;;;;;;;;;;19.70;56.00;;;;;;7372718;19;20240;-79
2022/05/27 02:59:44;;;;;;;;;;;19.70;56.20;;;;;;7372188;19;19927;-80
2022/05/27 03:02:16;;;;;;;;;;;19.70;55.80;;;;;;7394315;19;20002;-80
2022/05/27 03:04:46;;;;;;;;;;;19.70;56.00;;;;;;7370759;19;19939;-79
2022/05/27 03:07:21;;;;;;;;;;;19.60;55.80;;;;;;7372373;19;20289;-79
2022/05/27 03:09:51;;;;;;;;;;;19.60;55.90;;;;;;7371943;19;19998;-79
2022/05/27 03:12:25;;;;;;;;;;;19.40;56.20;;;;;;7373649;19;19949;-79
2022/05/27 03:15:00;;;;;;;;;;;19.30;56.40;;;;;;7372346;19;19918;-78
2022/05/27 03:17:36;;;;;;;;;;;19.20;56.50;;;;;;7390736;19;20010;-79
2022/05/27 03:20:11;;;;;;;;;;;19.00;56.50;;;;;;7370774;19;20283;-79
2022/05/27 03:22:46;;;;;;;;;;;18.80;56.70;;;;;;7372017;19;19978;-79
2022/05/27 03:25:20;;;;;;;;;;;18.50;57.50;;;;;;7376204;19;20003;-79
2022/05/27 03:27:55;;;;;;;;;;;18.40;57.90;;;;;;7392097;19;19951;-79
2022/05/27 03:30:25;;;;;;;;;;;18.40;58.10;;;;;;7394319;19;19915;-79
2022/05/27 03:32:59;;;;;;;;;;;18.10;58.60;;;;;;7377850;19;19974;-79
2022/05/27 03:35:33;;;;;;;;;;;18.00;59.20;;;;;;7399210;19;20036;-79
2022/05/27 03:38:05;;;;;;;;;;;18.10;59.20;;;;;;7371309;19;19919;-79
2022/05/27 03:40:37;;;;;;;;;;;18.20;59.00;;;;;;7370607;19;20018;-79
2022/05/27 03:43:06;;;;;;;;;;;18.30;59.00;;;;;;7370953;19;20247;-78
2022/05/27 03:45:48;;;;;;;;;;;18.40;58.80;;;;;;7370733;19;19923;-79
2022/05/27 03:48:20;;;;;;;;;;;18.40;58.80;;;;;;7369660;19;20025;-79
2022/05/27 03:50:49;;;;;;;;;;;18.30;58.80;;;;;;7372292;19;19939;-79
2022/05/27 03:53:18;;;;;;;;;;;18.20;59.00;;;;;;7392939;19;19933;-79
2022/05/27 03:55:47;;;;;;;;;;;18.30;58.90;;;;;;7369442;19;20030;-79
2022/05/27 03:58:15;;;;;;;;;;;18.30;58.90;;;;;;7372894;19;20291;-79
2022/05/27 04:00:44;;;;;;;;;;;18.30;58.70;;;;;;7370132;19;19926;-79
2022/05/27 04:03:13;;;;;;;;;;;17.90;58.80;;;;;;7371928;19;19986;-78
2022/05/27 04:05:44;;;;;;;;;;;17.90;59.00;;;;;;7371979;19;19931;-79
2022/05/27 04:08:13;;;;;;;;;;;17.80;59.10;;;;;;7389621;19;20277;-79
2022/05/27 04:10:42;;;;;;;;;;;17.70;59.40;;;;;;7370697;19;19943;-79
2022/05/27 04:13:10;;;;;;;;;;;17.80;59.50;;;;;;7368628;19;20339;-79
2022/05/27 04:15:38;;;;;;;;;;;17.60;59.70;;;;;;7367520;19;19915;-79
2022/05/27 04:18:08;;;;;;;;;;;17.70;59.80;;;;;;7371365;19;20248;-79
2022/05/27 04:20:36;;;;;;;;;;;17.50;59.90;;;;;;7370871;19;19967;-79
2022/05/27 04:23:07;;;;;;;;;;;17.70;60.00;;;;;;7391930;19;19937;-79
2022/05/27 04:25:36;;;;;;;;;;;17.70;60.00;;;;;;7370081;19;19927;-79
2022/05/27 04:28:04;;;;;;;;;;;17.70;59.90;;;;;;7371079;19;20499;-79
2022/05/27 04:30:33;;;;;;;;;;;17.70;60.30;;;;;;7369655;19;19919;-79
2022/05/27 04:33:01;;;;;;;;;;;17.50;60.90;;;;;;7369683;19;20385;-79
2022/05/27 04:35:30;;;;;;;;;;;17.40;61.40;;;;;;7396170;19;19955;-79
2022/05/27 04:37:58;;;;;;;;;;;17.40;61.90;;;;;;7376702;19;19927;-79
2022/05/27 04:40:29;;;;;;;;;;;17.40;62.00;;;;;;7373727;19;20295;-80
2022/05/27 04:42:58;;;;;;;;;;;17.60;61.60;;;;;;7371294;19;19967;-79
2022/05/27 04:45:29;;;;;;;;;;;17.60;61.60;;;;;;7370671;19;19990;-79
2022/05/27 04:47:58;;;;;;;;;;;17.80;61.40;;;;;;7369590;19;19919;-79
2022/05/27 04:50:27;;;;;;;;;;;17.50;62.00;;;;;;7390117;19;19934;-79
2022/05/27 04:52:55;;;;;;;;;;;17.30;62.60;;;;;;7369365;19;19914;-79
2022/05/27 04:55:24;;;;;;;;;;;17.30;63.00;;;;;;7369224;19;19967;-79
2022/05/27 04:57:57;;;;;;;;;;;17.50;62.70;;;;;;7369121;19;19926;-80
2022/05/27 05:00:26;;;;;;;;;;;17.30;62.60;;;;;;7366959;19;20626;-78
2022/05/27 05:02:55;;;;;;;;;;;17.50;62.70;;;;;;7367933;19;20002;-78
2022/05/27 05:05:24;;;;;;;;;;;17.60;62.70;;;;;;7387221;19;19933;-78
2022/05/27 05:07:54;;;;;;;;;;;17.70;62.20;;;;;;7367746;19;20030;-78
2022/05/27 05:10:23;;;;;;;;;;;17.60;62.30;;;;;;7369308;19;19922;-77
2022/05/27 05:12:52;;;;;;;;;;;17.90;62.10;;;;;;7367544;19;19927;-77
2022/05/27 05:15:28;;;;;;;;;;;18.00;61.50;;;;;;7367944;19;20351;-78
2022/05/27 05:17:57;;;;;;;;;;;18.00;61.50;;;;;;7371054;19;19918;-78
2022/05/27 05:20:27;;;;;;;;;;;18.10;61.30;;;;;;7394594;19;20278;-78
2022/05/27 05:22:55;;;;;;;;;;;18.10;61.20;;;;;;7376210;19;19986;-78
2022/05/27 05:25:25;;;;;;;;;;;18.10;61.20;;;;;;7375262;19;19944;-78
2022/05/27 05:27:54;;;;;;;;;;;18.20;61.40;;;;;;7373782;19;19915;-78
2022/05/27 05:30:26;;;;;;;;;;;18.20;61.60;;;;;;7374334;19;20618;-78
2022/05/27 05:32:55;;;;;;;;;;;18.10;61.50;;;;;;7377002;19;20215;-78
2022/05/27 05:35:24;;;;;;;;;;;18.10;61.70;;;;;;7397228;19;20026;-77
2022/05/27 05:37:52;;;;;;;;;;;18.30;61.70;;;;;;7375926;19;20015;-78
2022/05/27 05:40:21;;;;;;;;;;;18.30;61.50;;;;;;7373908;19;19919;-78
2022/05/27 05:42:50;;;;;;;;;;;18.30;61.60;;;;;;7372526;19;19986;-78
2022/05/27 05:45:19;;;;;;;;;;;18.20;61.50;;;;;;7370006;19;19949;-77
2022/05/27 05:47:50;;;;;;;;;;;18.20;62.00;;;;;;7369134;19;19919;-78
2022/05/27 05:50:19;;;;;;;;;;;18.30;62.20;;;;;;7395240;19;19926;-77
2022/05/27 05:52:48;;;;;;;;;;;18.40;61.70;;;;;;7376309;19;19922;-78
2022/05/27 05:55:17;;;;;;;;;;;18.40;61.70;;;;;;7375392;19;20014;-78
2022/05/27 05:57:46;;;;;;;;;;;18.30;61.80;;;;;;7375515;19;20035;-78
2022/05/27 06:00:16;;;;;;;;;;;18.40;62.10;;;;;;7372730;19;19973;-78
2022/05/27 06:02:45;;;;;;;;;;;18.40;62.00;;;;;;7371742;19;19929;-78
2022/05/27 06:05:16;;;;;;;;;;;18.40;61.90;;;;;;7394043;19;19922;-78
2022/05/27 06:07:44;;;;;;;;;;;18.40;62.10;;;;;;7374975;19;19926;-78
2022/05/27 06:10:15;;;;;;;;;;;18.50;62.00;;;;;;7374054;19;20464;-78
2022/05/27 06:12:43;;;;;;;;;;;18.60;61.60;;;;;;7375359;19;19925;-77
2022/05/27 06:15:13;;;;;;;;;;;18.60;61.40;;;;;;7374414;19;19923;-77
2022/05/27 06:17:41;;;;;;;;;;;18.60;61.00;;;;;;7372668;19;19943;-78
2022/05/27 06:20:11;;;;;;;;;;;18.60;61.00;;;;;;7395695;19;20558;-78
2022/05/27 06:22:42;;;;;;;;;;;18.60;60.90;;;;;;7370904;19;19919;-77
2022/05/27 06:25:11;;;;;;;;;;;18.60;61.00;;;;;;7374941;19;20291;-78
2022/05/27 06:27:40;;;;;;;;;;;18.50;60.70;;;;;;7375335;19;19914;-79
2022/05/27 06:35:44;;;;;;;;;;;18.40;61.60;;;;;;7371439;19;19923;-76
2022/05/27 06:38:16;;;;;;;;;;;18.40;61.30;;;;;;7393284;19;20554;-78
2022/05/27 06:40:44;;;;;;;;;;;18.40;61.40;;;;;;7370653;19;19919;-78
2022/05/27 06:43:13;;;;;;;;;;;18.40;61.20;;;;;;7371248;19;19922;-78
2022/05/27 06:45:41;;;;;;;;;;;18.50;61.40;;;;;;7372582;19;20038;-77
2022/05/27 06:48:10;;;;;;;;;;;18.60;61.30;;;;;;7372899;19;19978;-78
2022/05/27 06:50:39;;;;;;;;;;;18.60;61.10;;;;;;7372427;19;19935;-79
2022/05/27 06:53:07;;;;;;;;;;;18.50;60.80;;;;;;7395851;19;19915;-78
2022/05/27 06:55:38;;;;;;;;;;;18.50;61.40;;;;;;7371693;19;19922;-78
2022/05/27 06:58:07;;;;;;;;;;;18.50;61.60;;;;;;7374426;19;19926;-78
2022/05/27 07:00:38;;;;;;;;;;;18.50;61.60;;;;;;7373441;19;19914;-79
2022/05/27 07:03:07;;;;;;;;;;;18.60;61.40;;;;;;7373734;19;19915;-78
2022/05/27 07:05:36;;;;;;;;;;;18.50;61.30;;;;;;7370376;19;20274;-79
2022/05/27 07:08:04;;;;;;;;;;;18.50;61.60;;;;;;7391470;19;19930;-79
2022/05/27 07:10:33;;;;;;;;;;;18.40;61.90;;;;;;7370951;19;19974;-79
2022/05/27 07:13:04;;;;;;;;;;;18.50;62.00;;;;;;7371450;19;19923;-78
2022/05/27 07:15:32;;;;;;;;;;;18.60;61.90;;;;;;7370376;19;19922;-78
2022/05/27 07:18:02;;;;;;;;;;;18.60;61.80;;;;;;7369684;19;19915;-79
2022/05/27 07:20:30;;;;;;;;;;;18.60;61.70;;;;;;7393796;19;19923;-79
2022/05/27 07:22:58;;;;;;;;;;;18.60;61.30;;;;;;7391603;19;19998;-79
2022/05/27 07:25:27;;;;;;;;;;;18.50;61.40;;;;;;7371594;19;19933;-78
2022/05/27 07:27:56;;;;;;;;;;;18.60;61.70;;;;;;7371596;19;19922;-78
2022/05/27 07:30:27;;;;;;;;;;;18.70;61.40;;;;;;7387395;19;19983;-78
2022/05/27 07:32:55;;;;;;;;;;;18.70;61.30;;;;;;7382218;19;19919;-79
2022/05/27 07:35:24;;;;;;;;;;;18.80;61.10;;;;;;7398295;19;20402;-78
2022/05/27 07:37:52;;;;;;;;;;;18.80;60.50;;;;;;7373630;19;20327;-78
2022/05/27 07:40:21;;;;;;;;;;;18.90;60.20;;;;;;7372089;19;20224;-82
2022/05/27 07:42:49;;;;;;;;;;;18.90;60.00;;;;;;7370401;19;19926;-78
2022/05/27 07:45:21;;;;;;;;;;;19.10;60.20;;;;;;7370674;19;19951;-82
2022/05/27 07:47:52;;;;;;;;;;;19.20;60.10;;;;;;7372388;19;19923;-80
2022/05/27 07:50:38;;;;;;;;;;;19.40;60.00;;;;;;7387237;19;19922;-80
2022/05/27 07:53:07;;;;;;;;;;;19.50;59.60;;;;;;7353479;19;20537;-80
2022/05/27 07:55:36;;;;;;;;;;;19.60;59.10;;;;;;7369689;19;19939;-81
2022/05/27 07:58:04;;;;;;;;;;;19.70;59.10;;;;;;7372628;19;20241;-79
2022/05/27 08:00:35;;;;;;;;;;;19.90;58.70;;;;;;7371146;19;20529;-80
2022/05/27 08:03:06;;;;;;;;;;;19.90;58.60;;;;;;7392039;19;19933;-80
2022/05/27 08:05:35;;;;;;;;;;;19.90;58.60;;;;;;7368907;19;19958;-81
2022/05/27 08:08:05;;;;;;;;;;;19.90;58.30;;;;;;7369356;19;19926;-80
2022/05/27 08:10:34;;;;;;;;;;;19.90;58.50;;;;;;7376570;19;19926;-83
2022/05/27 08:13:03;;;;;;;;;;;20.00;58.60;;;;;;7373529;19;19931;-80
2022/05/27 08:15:32;;;;;;;;;;;20.00;58.60;;;;;;7372419;19;19930;-82
2022/05/27 08:18:00;;;;;;;;;;;20.10;58.50;;;;;;7398631;19;19944;-82
2022/05/27 08:22:01;;;;;;;;;;;20.10;58.30;;;;;;7407329;19;19922;-82
2022/05/27 08:24:30;;;;;;;;;;;20.00;58.30;;;;;;7428918;19;20295;-83
2022/05/27 08:26:58;;;;;;;;;;;20.10;58.60;;;;;;7370990;19;19926;-82
2022/05/27 08:29:28;;;;;;;;;;;20.10;58.60;;;;;;7409819;19;19915;-82
2022/05/27 08:31:56;;;;;;;;;;;20.00;58.20;;;;;;7407973;19;20526;-82
2022/05/27 08:39:51;;;;;;;;;;;20.00;58.70;;;;;;7408483;19;19927;-82
2022/05/27 08:42:27;;;;;;;;;;;20.10;58.80;;;;;;7408455;19;19922;-83
2022/05/27 08:44:59;;;;;;;;;;;20.10;58.60;;;;;;7408474;19;19956;-81
2022/05/27 08:47:31;;;;;;;;;;;20.00;58.80;;;;;;7407560;19;20034;-81
2022/05/27 08:50:04;;;;;;;;;;;20.00;59.00;;;;;;7407378;19;19923;-81
2022/05/27 08:52:39;;;;;;;;;;;20.00;59.00;;;;;;7409106;19;19918;-81
2022/05/27 08:59:26;;;;;;;;;;;20.10;59.20;;;;;;7429719;19;19919;-83
2022/05/27 09:00:40;;;;;;;;;;;20.00;59.30;;;;;;7404445;19;19911;-83
2022/05/27 09:03:10;;;;;;;;;;;19.90;59.30;;;;;;7408043;19;20010;-83
2022/05/27 09:05:42;;;;;;;;;;;19.80;59.60;;;;;;7407666;19;19929;-83
2022/05/27 09:08:18;;;;;;;;;;;19.70;60.00;;;;;;7406387;19;19923;-79
2022/05/27 09:10:51;;;;;;;;;;;19.70;60.00;;;;;;7142439;19;20307;-78
2022/05/27 09:13:22;;;;;;;;;;;19.60;60.30;;;;;;7427270;19;19995;-77
2022/05/27 09:15:54;;;;;;;;;;;19.60;60.40;;;;;;7402178;19;19915;-78
2022/05/27 09:18:29;;;;;;;;;;;19.60;60.70;;;;;;7259156;19;208554;-78
2022/05/27 09:21:03;;;;;;;;;;;19.70;60.60;;;;;;7204013;19;19921;-78
2022/05/27 09:26:12;;;;;;;;;;;19.70;61.00;;;;;;7116130;19;20302;-76
2022/05/27 09:28:46;;;;;;;;;;;19.50;62.10;;;;;;7403542;19;19986;-77
2022/05/27 09:31:17;;;;;;;;;;;19.50;61.20;;;;;;7426390;19;19926;-77
2022/05/27 09:33:46;;;;;;;;;;;19.70;61.10;;;;;;7401663;19;19994;-78
2022/05/27 09:36:17;;;;;;;;;;;19.80;60.90;;;;;;7403463;19;20261;-77
2022/05/27 09:38:50;;;;;;;;;;;19.70;61.10;;;;;;7403667;19;20192;-77
2022/05/27 09:41:28;;;;;;;7.45;2.17;;;19.80;61.10;;;;;;7406804;19;19991;-77
2022/05/27 09:44:04;;;;;;;3.03;2.33;;;19.70;61.30;;;;;;7380682;19;20359;-77
2022/05/27 09:49:44;;;;;;;21.23;12.90;;;19.70;61.60;;;;;;7404051;19;20676;-77
2022/05/27 09:52:13;;;;;;;5.15;3.03;;;19.90;61.00;;;;;;7428052;19;20097;-79
2022/05/27 09:54:48;;;;;;;6.00;3.70;;;20.00;60.80;;;;;;7404746;19;20053;-77
2022/05/27 09:57:25;;;;;;;6.05;3.13;;;20.00;60.70;;;;;;7407265;19;20123;-77
2022/05/27 09:59:57;;;;;;;5.22;2.75;;;20.20;61.40;;;;;;7405204;19;20022;-77
2022/05/27 10:02:29;;;;;;;;;;;20.00;61.50;;;;;;7405540;19;20337;-77
2022/05/27 10:05:01;;;;;;;7.30;2.63;;;19.90;60.50;;;;;;7411607;19;19929;-80
2022/05/27 10:07:37;;;;;;;10.13;2.80;;;20.10;60.90;;;;;;7448842;19;20022;-80
2022/05/27 10:10:26;;;;;;;5.60;2.60;;;20.00;60.70;;;;;;7431039;19;20022;-87
2022/05/27 10:12:58;;;;;;;5.90;2.47;;;20.20;60.70;;;;;;7128348;19;1807295;-80
2022/05/27 10:15:34;;;;;;;4.97;2.17;;;20.30;60.50;;;;;;7405516;19;20058;-77
2022/05/27 10:18:18;;;;;;;4.95;2.17;;;20.20;59.90;;;;;;7408914;19;20027;-77
2022/05/27 10:20:53;;;;;;;4.22;2.17;;;20.10;60.10;;;;;;7408293;19;20010;-77
2022/05/27 10:23:29;;;;;;;4.10;2.05;;;20.10;60.70;;;;;;7400533;19;20014;-77
2022/05/27 10:25:59;;;;;;;4.30;1.38;;;20.30;60.50;;;;;;7398132;19;20181;-76
2022/05/27 10:28:33;;;;;;;4.75;1.80;;;20.40;60.40;;;;;;7421505;19;20440;-77
2022/05/27 10:31:05;;;;;;;2.45;1.60;;;20.20;60.00;;;;;;7401741;19;20035;-76
2022/05/27 10:33:44;;;;;;;5.97;1.50;;;20.50;59.70;;;;;;7399329;19;20015;-77
2022/05/27 10:36:52;;;;;;;2.45;1.38;;;20.60;59.80;;;;;;7389181;19;20448;-77
2022/05/27 10:39:29;;;;;;;3.53;1.50;;;20.80;59.70;;;;;;7372338;19;20035;-77
2022/05/27 10:42:14;;;;;;;2.95;1.75;;;21.10;59.30;;;;;;7370676;19;20074;-77
2022/05/27 10:44:57;;;;;;;4.43;1.83;;;21.10;58.40;;;;;;7371312;19;20014;-77
2022/05/27 10:47:36;;;;;;;3.08;1.52;;;21.00;58.30;;;;;;7372294;19;20007;-77
2022/05/27 10:50:19;;;;;;;3.45;1.58;;;21.30;58.10;;;;;;7371090;19;20102;-77
2022/05/27 10:53:08;;;;;;;2.47;1.63;;;21.50;57.70;;;;;;7373192;19;20115;-77
2022/05/27 10:55:48;;;;;;;4.65;1.40;;;21.50;57.20;;;;;;7370678;19;20132;-77
2022/05/27 11:04:49;;;;;;;2.95;1.65;;;21.90;56.30;;;;;;7268288;19;2004570;-76
2022/05/27 11:07:27;;;;;;;2.63;1.73;;;21.90;56.10;;;;;;7389881;19;20084;-76
2022/05/27 11:10:07;;;;;;;4.07;1.40;;;21.90;56.50;;;;;;7371488;19;20467;-76
2022/05/27 11:15:41;;;;;;;;;;;21.90;56.30;;;;;;7373775;19;20014;-77
2022/05/27 11:18:26;;;;;;;2.70;1.20;;;21.90;55.90;;;;;;7373177;19;19919;-77
2022/05/27 11:21:16;;;;;;;2.88;1.58;;;21.90;56.30;;;;;;7374717;19;20085;-77
2022/05/27 11:24:05;;;;;;;2.03;1.25;;;21.80;56.70;;;;;;7370890;19;20039;-76
2022/05/27 11:26:41;;;;;;;2.22;1.50;;;21.70;56.40;;;;;;7371016;19;20081;-77
2022/05/27 11:29:45;;;;;;;2.80;1.40;;;21.80;56.70;;;;;;7373958;19;20015;-77
2022/05/27 11:32:25;;;;;;;2.45;1.40;;;21.70;56.90;;;;;;7372615;19;20019;-77
2022/05/27 11:35:07;;;;;;;1.60;1.50;;;21.80;56.80;;;;;;7371152;19;20737;-77
2022/05/27 11:37:52;;;;;;;2.28;1.40;;;22.00;56.60;;;;;;7374127;19;20035;-77
2022/05/27 11:40:28;;;;;;;2.92;1.40;;;22.10;56.40;;;;;;7392399;19;20025;-77
2022/05/27 11:43:27;;;;;;;3.35;1.50;;;22.10;56.50;;;;;;7372755;19;20014;-78
2022/05/27 11:46:08;;;;;;;1.70;1.30;;;22.20;56.20;;;;;;7372764;19;20037;-77
2022/05/27 11:48:47;;;;;;;2.53;1.30;;;22.00;56.00;;;;;;7370327;19;20601;-77
2022/05/27 11:51:32;;;;;;;2.83;1.60;;;22.00;56.10;;;;;;7372508;19;20019;-77
2022/05/27 11:54:15;;;;;;;3.00;1.63;;;22.10;56.10;;;;;;7370418;19;20021;-77
2022/05/27 11:56:58;;;;;;;4.65;1.60;;;22.00;55.80;;;;;;7371166;19;20090;-77
2022/05/27 11:59:33;;;;;;;3.05;1.48;;;22.10;55.90;;;;;;7372040;19;20015;-78
2022/05/27 12:02:07;;;;;;;2.97;1.42;;;22.10;56.00;;;;;;7371447;19;20039;-78
2022/05/27 12:04:43;;;;;;;68.00;45.03;;;22.20;56.10;;;;;;7371923;19;20523;-77
2022/05/27 12:07:22;;;;;;;3.03;1.80;;;22.40;55.60;;;;;;7394239;19;20018;-77
2022/05/27 12:09:58;;;;;;;2.55;1.42;;;22.50;54.90;;;;;;7371578;19;20026;-77
2022/05/27 12:12:31;;;;;;;2.13;1.10;;;22.60;55.20;;;;;;7368513;19;20311;-76
2022/05/27 12:15:05;;;;;;;2.95;1.52;;;22.40;55.40;;;;;;7371404;19;20022;-76
2022/05/27 12:17:40;;;;;;;2.60;1.50;;;22.40;55.10;;;;;;7369032;19;20473;-77
2022/05/27 12:20:11;;;;;;;3.55;1.70;;;22.40;55.40;;;;;;7370645;19;20090;-76
2022/05/27 12:22:42;;;;;;;1.45;1.30;;;22.40;55.60;;;;;;7368883;19;20022;-76
2022/05/27 12:25:15;;;;;;;;;;;22.40;55.90;;;;;;7389138;19;20033;-77
2022/05/27 12:27:44;;;;;;;4.10;2.10;;;22.50;55.70;;;;;;7367942;19;20584;-77
2022/05/27 12:30:17;;;;;;;2.15;1.48;;;22.30;55.60;;;;;;7370036;19;20014;-77
2022/05/27 12:32:48;;;;;;;2.40;1.25;;;22.30;55.60;;;;;;7369919;19;20356;-77
2022/05/27 12:35:23;;;;;;;4.07;1.42;;;22.40;55.90;;;;;;7370706;19;20031;-77
2022/05/27 12:38:04;;;;;;;3.88;1.77;;;22.50;55.80;;;;;;7373695;19;20072;-77
2022/05/27 12:40:41;;;;;;;2.65;1.40;;;22.40;55.90;;;;;;7371705;19;20022;-77
2022/05/27 12:43:23;;;;;;;2.28;1.50;;;22.40;55.70;;;;;;7391832;19;20089;-77
2022/05/27 12:45:54;;;;;;;4.07;1.33;;;22.20;56.10;;;;;;7370174;19;20014;-77
2022/05/27 12:48:33;;;;;;;2.90;1.17;;;22.40;56.00;;;;;;7371555;19;20026;-77
2022/05/27 12:51:05;;;;;;;1.58;1.20;;;22.40;55.80;;;;;;7371300;19;20018;-77
2022/05/27 12:53:52;;;;;;;1.25;1.00;;;22.50;55.90;;;;;;7370631;19;20014;-77
2022/05/27 13:02:53;;;;;;;1.00;1.00;;;22.80;55.50;;;;;;7371954;19;20141;-77
2022/05/27 13:05:25;;;;;;;1.00;0.98;;;22.90;54.40;;;;;;7371087;19;20466;-77
2022/05/27 13:08:10;;;;;;;1.20;0.95;;;22.60;54.60;;;;;;7370468;19;20019;-77
2022/05/27 13:10:52;;;;;;;0.95;0.82;;;22.50;55.00;;;;;;7371138;19;20022;-78
2022/05/27 13:13:33;;;;;;;1.27;0.80;;;22.70;55.10;;;;;;7393276;19;20081;-78
2022/05/27 13:16:27;;;;;;;1.38;1.00;;;22.90;54.50;;;;;;7370519;19;20045;-77
2022/05/27 13:19:03;;;;;;;0.80;0.80;;;23.00;54.40;;;;;;7370422;19;20078;-77
2022/05/27 13:21:42;;;;;;;1.00;0.80;;;23.20;54.60;;;;;;7371601;19;20015;-77
2022/05/27 13:24:37;;;;;;;1.00;0.90;;;23.20;53.60;;;;;;7370577;19;20018;-78
2022/05/27 13:27:31;;;;;;;2.05;0.93;;;23.30;53.70;;;;;;7376433;19;20014;-78
2022/05/27 13:30:06;;;;;;;1.15;0.70;;;23.30;53.40;;;;;;7396529;19;20059;-79
2022/05/27 13:32:38;;;;;;;1.27;0.68;;;23.30;53.90;;;;;;7401459;19;20026;-80
2022/05/27 13:35:15;;;;;;;2.00;0.70;;;23.20;53.00;;;;;;7381200;19;20020;-80
2022/05/27 13:37:51;;;;;;;1.23;1.00;;;23.00;53.10;;;;;;7381517;19;20054;-80
2022/05/27 13:40:30;;;;;;;1.13;0.90;;;23.20;53.80;;;;;;7402621;19;20014;-80
2022/05/27 13:43:08;;;;;;;0.82;0.73;;;23.40;53.70;;;;;;7379945;19;20431;-80
2022/05/27 13:45:43;;;;;;;2.70;0.90;;;23.60;53.20;;;;;;7379257;19;20202;-80
2022/05/27 13:48:16;;;;;;;1.20;0.98;;;23.60;52.20;;;;;;7381602;19;20040;-80
2022/05/27 13:50:47;;;;;;;12.45;1.58;;;23.70;52.40;;;;;;7379370;19;20018;-80
2022/05/27 13:53:27;;;;;;;1.05;0.70;;;23.70;52.60;;;;;;7379282;19;20086;-80
2022/05/27 13:55:58;;;;;;;1.07;0.73;;;23.70;53.20;;;;;;7373957;19;20015;-80
2022/05/27 13:58:30;;;;;;;0.95;0.60;;;23.60;52.70;;;;;;7394748;19;20032;-80
2022/05/27 14:01:05;;;;;;;1.42;0.70;;;23.50;52.70;;;;;;7372387;19;20021;-81
2022/05/27 14:03:52;;;;;;;1.00;0.80;;;23.30;52.40;;;;;;7370215;19;20035;-80
2022/05/27 14:06:32;;;;;;;1.00;0.68;;;23.20;52.70;;;;;;7369714;19;20015;-81
2022/05/27 14:09:13;;;;;;;1.00;0.80;;;23.10;53.10;;;;;;7368307;19;20014;-80
2022/05/27 14:11:49;;;;;;;0.70;0.70;;;23.10;53.10;;;;;;7374199;19;20074;-83
2022/05/27 14:14:25;;;;;;;3.30;0.50;;;23.20;53.10;;;;;;7372719;19;20616;-83
2022/05/27 14:16:54;;;;;;;0.70;0.70;;;23.30;52.90;;;;;;7375299;19;20011;-81
2022/05/27 14:19:25;;;;;;;1.25;0.70;;;23.30;52.60;;;;;;7404289;19;20018;-81
2022/05/27 14:24:50;;;;;;;0.77;0.60;;;23.30;52.60;;;;;;7389069;19;20794;-83
2022/05/27 14:27:25;;;;;;;3.03;0.85;;;23.40;51.60;;;;;;7389685;19;20027;-80
2022/05/27 14:29:58;;;;;;;0.60;0.60;;;23.30;52.30;;;;;;7382446;19;20058;-82
2022/05/27 14:32:27;;;;;;;0.88;0.80;;;23.10;53.10;;;;;;7384455;19;20022;-84
2022/05/27 14:34:58;;;;;;;2.55;0.65;;;22.80;54.00;;;;;;7375551;19;20017;-81
2022/05/27 14:37:41;;;;;;;4.72;0.70;;;22.70;54.50;;;;;;7401093;19;20015;-80
2022/05/27 14:40:13;;;;;;;0.70;0.70;;;22.60;55.00;;;;;;7379831;19;20385;-81
2022/05/27 14:42:45;;;;;;;0.52;0.50;;;22.70;54.20;;;;;;7373628;19;20014;-82
2022/05/27 14:45:37;;;;;;;1.10;0.70;;;22.80;54.00;;;;;;7374002;19;20090;-81
2022/05/27 14:48:28;;;;;;;0.70;0.70;;;23.00;53.60;;;;;;7376351;19;20450;-84
2022/05/27 14:51:46;;;;;;;0.70;0.70;;;23.10;52.00;;;;;;7374502;19;20090;-85
2022/05/27 14:54:25;;;;;;;2.03;0.85;;;23.10;52.10;;;;;;7372099;19;20018;-82
2022/05/27 14:57:14;;;;;;;0.88;0.80;;;23.20;51.40;;;;;;7373274;19;20039;-82
2022/05/27 14:59:49;;;;;;;2.05;0.80;;;23.40;50.30;;;;;;7374633;19;20094;-84
2022/05/27 15:02:29;;;;;;;2.92;0.75;;;23.50;50.30;;;;;;7372748;19;20022;-81
2022/05/27 15:05:01;;;;;;;1.40;1.15;;;23.60;50.60;;;;;;7372204;19;20361;-80